Time;durP1;ratioP1;P1;durP2;ratioP2;P2;SDS_P1;SDS_P2;PMS_P1;PMS_P2;Temp;Humidity;BMP_temperature;BMP_pressure;BME280_temperature;BME280_humidity;BME280_pressure;Samples;Min_cycle;Max_cycle;Signal;HPM_P1;HPM_P2
2021/12/20 00:00:22;;;;;;;30.30;4.40;;;6.40;99.90;;;;;;5074627;28;20032;-66
2021/12/20 00:02:55;;;;;;;33.10;5.22;;;6.40;99.90;;;;;;5093520;28;20123;-65
2021/12/20 00:05:21;;;;;;;31.83;5.15;;;6.40;99.90;;;;;;5101455;27;20051;-65
2021/12/20 00:07:47;;;;;;;17.85;4.07;;;6.40;99.90;;;;;;5107846;28;20123;-65
2021/12/20 00:10:14;;;;;;;32.00;5.22;;;6.40;99.90;;;;;;5108068;28;20448;-65
2021/12/20 00:12:41;;;;;;;28.15;5.65;;;6.40;99.90;;;;;;5093175;28;20048;-65
2021/12/20 00:15:07;;;;;;;31.30;4.65;;;6.40;99.90;;;;;;5111197;27;20048;-65
2021/12/20 00:17:32;;;;;;;24.50;4.28;;;6.40;99.90;;;;;;5100911;28;20032;-65
2021/12/20 00:19:58;;;;;;;24.58;4.03;;;6.30;99.90;;;;;;5111276;28;20127;-65
2021/12/20 00:22:23;;;;;;;26.50;4.35;;;6.30;99.90;;;;;;5102391;27;20118;-64
2021/12/20 00:24:49;;;;;;;36.40;4.25;;;6.30;99.90;;;;;;5099681;28;20424;-65
2021/12/20 00:27:19;;;;;;;26.55;4.80;;;6.30;99.90;;;;;;5095201;27;20043;-66
2021/12/20 00:29:46;;;;;;;42.25;5.38;;;6.30;99.90;;;;;;5076842;28;20055;-66
2021/12/20 00:32:13;;;;;;;26.02;4.40;;;6.30;99.90;;;;;;5103965;28;20104;-65
2021/12/20 00:34:41;;;;;;;28.60;4.50;;;6.30;99.90;;;;;;5106853;27;20440;-65
2021/12/20 00:40:19;;;;;;;38.10;4.85;;;6.40;99.90;;;;;;5092887;28;20094;-66
2021/12/20 00:42:36;;;;;;;31.00;5.20;;;6.40;99.90;;;;;;5103713;28;20438;-65
2021/12/20 00:45:03;;;;;;;30.13;4.47;;;6.20;99.90;;;;;;5098933;28;20135;-65
2021/12/20 00:47:29;;;;;;;27.88;4.75;;;6.40;99.90;;;;;;5101288;28;20410;-65
2021/12/20 00:49:54;;;;;;;27.13;5.22;;;6.30;99.90;;;;;;5104978;28;20040;-66
2021/12/20 00:52:20;;;;;;;22.00;4.32;;;6.30;99.90;;;;;;5109012;28;20046;-65
2021/12/20 00:54:46;;;;;;;20.65;3.33;;;6.30;99.90;;;;;;5099080;28;20039;-65
2021/12/20 00:57:11;;;;;;;20.65;4.07;;;6.40;99.90;;;;;;5093981;28;20373;-66
2021/12/20 00:59:37;;;;;;;26.77;4.55;;;6.40;99.90;;;;;;5100941;27;20081;-65
2021/12/20 01:02:03;;;;;;;19.83;2.72;;;6.40;99.90;;;;;;5101755;28;20405;-66
2021/12/20 01:04:28;;;;;;;17.02;2.88;;;6.30;99.90;;;;;;5096985;28;20035;-65
2021/12/20 01:06:54;;;;;;;17.58;2.90;;;6.30;99.90;;;;;;5104114;28;20039;-65
2021/12/20 01:09:20;;;;;;;23.05;3.58;;;6.30;99.90;;;;;;5103977;28;20043;-64
2021/12/20 01:11:51;;;;;;;17.58;2.72;;;6.20;99.90;;;;;;5098024;28;20040;-66
2021/12/20 01:14:23;;;;;;;21.75;3.03;;;6.20;99.90;;;;;;5099778;28;20115;-64
2021/12/20 01:16:49;;;;;;;15.50;2.80;;;6.20;99.90;;;;;;5083273;28;20043;-65
2021/12/20 01:19:15;;;;;;;21.98;2.75;;;6.20;99.90;;;;;;5088893;28;20096;-65
2021/12/20 01:21:41;;;;;;;20.75;3.88;;;6.20;99.90;;;;;;5093961;28;20070;-64
2021/12/20 01:24:06;;;;;;;15.40;2.78;;;6.20;99.90;;;;;;5099469;28;20076;-65
2021/12/20 01:26:32;;;;;;;14.38;2.83;;;6.10;99.90;;;;;;5101153;28;20089;-65
2021/12/20 01:28:58;;;;;;;20.42;2.78;;;6.10;99.90;;;;;;5096173;28;20381;-66
2021/12/20 01:31:23;;;;;;;16.20;2.85;;;6.10;99.90;;;;;;5102030;28;20085;-65
2021/12/20 01:33:49;;;;;;;14.85;2.53;;;6.10;99.90;;;;;;5103125;28;20393;-65
2021/12/20 01:36:15;;;;;;;17.38;3.13;;;6.10;99.90;;;;;;5121405;28;20123;-66
2021/12/20 01:38:40;;;;;;;22.35;3.22;;;6.10;99.90;;;;;;5111635;28;20131;-66
2021/12/20 01:41:08;;;;;;;15.90;2.58;;;6.10;99.90;;;;;;5110005;28;20104;-65
2021/12/20 01:43:34;;;;;;;26.97;3.23;;;6.00;99.90;;;;;;5094613;28;20367;-66
2021/12/20 01:46:00;;;;;;;12.23;2.50;;;6.00;99.90;;;;;;5109635;28;20289;-64
2021/12/20 01:48:26;;;;;;;21.45;3.40;;;6.00;99.90;;;;;;5110484;28;20457;-64
2021/12/20 01:51:18;;;;;;;9.50;1.98;;;5.90;99.90;;;;;;5085316;28;20087;-65
2021/12/20 01:53:44;;;;;;;21.35;2.95;;;5.90;99.90;;;;;;5091576;28;20509;-66
2021/12/20 01:56:10;;;;;;;18.08;2.20;;;5.90;99.90;;;;;;5096061;28;20036;-66
2021/12/20 01:58:36;;;;;;;18.08;2.75;;;5.90;99.90;;;;;;5095254;28;20116;-66
2021/12/20 02:03:38;;;;;;;13.55;2.22;;;5.80;99.90;;;;;;5108161;28;20406;-66
2021/12/20 02:06:08;;;;;;;14.02;2.67;;;5.80;99.90;;;;;;5106748;28;20156;-66
2021/12/20 02:08:33;;;;;;;20.95;2.97;;;5.80;99.90;;;;;;5110635;28;20040;-66
2021/12/20 02:11:05;;;;;;;16.30;2.53;;;5.70;99.90;;;;;;5108955;28;20043;-66
2021/12/20 02:13:31;;;;;;;16.27;2.50;;;5.80;99.90;;;;;;5110241;28;20059;-65
2021/12/20 02:15:58;;;;;;;13.75;2.65;;;5.70;99.90;;;;;;5087294;28;20055;-66
2021/12/20 02:18:24;;;;;;;17.25;2.70;;;5.70;99.90;;;;;;5110887;28;20031;-66
2021/12/20 02:20:50;;;;;;;15.98;2.95;;;5.70;99.90;;;;;;5094905;28;20546;-66
2021/12/20 02:23:16;;;;;;;18.02;2.50;;;5.60;99.90;;;;;;5096721;28;20047;-66
2021/12/20 02:25:41;;;;;;;15.70;2.97;;;5.60;99.90;;;;;;5093309;28;20037;-66
2021/12/20 02:28:18;;;;;;;13.13;2.45;;;5.50;99.90;;;;;;5109265;28;20073;-66
2021/12/20 02:38:47;;;;;;;10.43;2.63;;;5.40;99.90;;;;;;5110069;27;20044;-68
2021/12/20 02:41:17;;;;;;;;;;;5.40;99.90;;;;;;5097925;28;20130;-66
2021/12/20 02:43:54;;;;;;;12.05;2.55;;;5.30;99.90;;;;;;5104564;28;19932;-66
2021/12/20 02:47:15;;;;;;;14.80;2.78;;;5.30;99.90;;;;;;5104530;28;20035;-65
2021/12/20 02:49:23;;;;;;;16.45;3.03;;;5.30;99.90;;;;;;5099200;28;20178;-66
2021/12/20 02:51:52;;;;;;;25.60;2.92;;;5.30;99.90;;;;;;5105460;28;20035;-68
2021/12/20 02:54:20;;;;;;;18.02;2.40;;;5.30;99.90;;;;;;5110385;27;20118;-67
2021/12/20 02:56:46;;;;;;;19.35;2.78;;;5.30;99.90;;;;;;5102457;27;20486;-66
2021/12/20 02:59:12;;;;;;;20.38;2.88;;;5.30;99.90;;;;;;5100371;27;20504;-65
2021/12/20 03:01:41;;;;;;;16.15;2.78;;;5.30;99.90;;;;;;5099407;28;20119;-66
2021/12/20 03:04:07;;;;;;;15.82;2.95;;;5.30;99.90;;;;;;5100471;28;20040;-66
2021/12/20 03:06:41;;;;;;;15.80;3.20;;;5.30;99.90;;;;;;5102516;28;20504;-66
2021/12/20 03:09:10;;;;;;;18.20;2.88;;;5.30;99.90;;;;;;5105062;28;20047;-67
2021/12/20 03:11:37;;;;;;;17.70;3.35;;;5.20;99.90;;;;;;5077633;28;20500;-66
2021/12/20 03:14:25;;;;;;;22.25;2.78;;;5.20;99.90;;;;;;5104077;27;20076;-66
2021/12/20 03:16:51;;;;;;;19.67;3.50;;;5.20;99.90;;;;;;5096358;28;20080;-66
2021/12/20 03:19:16;;;;;;;20.65;2.95;;;5.20;99.90;;;;;;5096219;28;20157;-68
2021/12/20 03:21:42;;;;;;;27.27;3.33;;;5.20;99.90;;;;;;5122775;27;20444;-64
2021/12/20 03:24:08;;;;;;;27.50;3.08;;;5.20;99.90;;;;;;5109060;27;20044;-65
2021/12/20 03:26:34;;;;;;;17.75;3.08;;;5.20;99.90;;;;;;5106708;27;20438;-66
2021/12/20 03:29:00;;;;;;;16.55;2.75;;;5.10;99.90;;;;;;5103444;28;20449;-68
2021/12/20 03:31:26;;;;;;;20.58;2.90;;;5.10;99.90;;;;;;5105410;28;20043;-66
2021/12/20 03:33:52;;;;;;;14.93;3.05;;;5.00;99.90;;;;;;5102153;27;20059;-66
2021/12/20 03:36:17;;;;;;;20.05;2.40;;;5.00;99.90;;;;;;5098105;27;20058;-65
2021/12/20 03:38:43;;;;;;;21.23;3.25;;;4.90;99.90;;;;;;5105559;28;20059;-66
2021/12/20 03:41:09;;;;;;;20.85;3.15;;;4.90;99.90;;;;;;5098829;28;20040;-65
2021/12/20 03:43:35;;;;;;;24.17;3.67;;;4.80;99.90;;;;;;5095852;28;20439;-65
2021/12/20 03:46:05;;;;;;;13.25;2.95;;;4.80;99.90;;;;;;5090053;28;20047;-66
2021/12/20 03:48:32;;;;;;;14.43;2.63;;;4.70;99.90;;;;;;5103567;28;20043;-66
2021/12/20 03:51:01;;;;;;;16.33;3.45;;;4.60;99.90;;;;;;5104629;28;20044;-66
2021/12/20 03:53:27;;;;;;;20.85;2.70;;;4.60;99.90;;;;;;5103513;28;20107;-66
2021/12/20 03:55:52;;;;;;;21.02;2.80;;;4.50;99.90;;;;;;5106490;28;20595;-66
2021/12/20 03:58:18;;;;;;;19.95;2.72;;;4.00;99.90;;;;;;5106958;28;20035;-65
2021/12/20 04:00:44;;;;;;;10.60;2.88;;;4.50;99.90;;;;;;5086931;28;20036;-65
2021/12/20 04:03:13;;;;;;;17.70;2.72;;;3.90;99.90;;;;;;5109205;27;20130;-66
2021/12/20 04:05:39;;;;;;;15.30;2.47;;;4.30;99.90;;;;;;5108506;28;20058;-66
2021/12/20 04:08:05;;;;;;;20.92;3.00;;;4.20;99.90;;;;;;5105738;28;20039;-65
2021/12/20 04:10:31;;;;;;;15.75;2.80;;;4.20;99.90;;;;;;5097079;28;20382;-65
2021/12/20 04:12:57;;;;;;;12.75;2.22;;;4.10;99.90;;;;;;5097316;28;20093;-65
2021/12/20 04:15:23;;;;;;;16.77;2.83;;;4.00;99.90;;;;;;5085772;28;20047;-65
2021/12/20 04:17:48;;;;;;;18.20;2.78;;;4.00;99.90;;;;;;5093956;28;20189;-65
2021/12/20 04:20:14;;;;;;;26.48;3.00;;;4.00;99.90;;;;;;5102420;28;20058;-65
2021/12/20 04:22:40;;;;;;;14.80;2.42;;;4.00;99.90;;;;;;5113676;27;20036;-67
2021/12/20 04:25:06;;;;;;;20.27;3.15;;;4.00;99.90;;;;;;5098506;28;20110;-65
2021/12/20 04:27:32;;;;;;;16.75;3.53;;;3.90;99.90;;;;;;5102867;28;20115;-66
2021/12/20 04:29:58;;;;;;;15.77;2.88;;;3.90;99.90;;;;;;5089607;28;20409;-65
2021/12/20 04:32:23;;;;;;;15.70;2.60;;;3.80;99.90;;;;;;5102953;28;20043;-65
2021/12/20 04:34:49;;;;;;;24.35;4.78;;;3.80;99.90;;;;;;5098932;28;20043;-66
2021/12/20 04:37:15;;;;;;;15.18;2.35;;;3.70;99.90;;;;;;5095713;28;20104;-66
2021/12/20 04:39:41;;;;;;;20.77;2.88;;;3.70;99.90;;;;;;5106104;28;20521;-65
2021/12/20 04:42:08;;;;;;;15.52;3.00;;;3.60;99.90;;;;;;5111338;28;20142;-66
2021/12/20 04:44:35;;;;;;;21.35;2.97;;;3.50;99.90;;;;;;5096716;28;20111;-66
2021/12/20 04:47:01;;;;;;;16.88;2.35;;;3.40;99.90;;;;;;5087789;28;20052;-66
2021/12/20 04:49:26;;;;;;;12.77;2.15;;;3.40;99.90;;;;;;5076445;28;20048;-66
2021/12/20 04:51:55;;;;;;;14.25;2.33;;;3.30;99.90;;;;;;5096478;28;20510;-65
2021/12/20 04:54:23;;;;;;;18.45;2.85;;;3.20;99.90;;;;;;5092451;28;20036;-65
2021/12/20 04:56:48;;;;;;;16.38;3.20;;;3.20;99.90;;;;;;5097479;27;20047;-66
2021/12/20 04:59:14;;;;;;;16.48;2.83;;;3.10;99.90;;;;;;5073477;28;20048;-65
2021/12/20 05:01:40;;;;;;;23.90;3.22;;;3.10;99.90;;;;;;5093113;27;20453;-68
2021/12/20 05:04:05;;;;;;;12.27;2.58;;;3.10;99.90;;;;;;5110067;27;20046;-66
2021/12/20 05:06:33;;;;;;;16.30;2.67;;;3.10;99.90;;;;;;5099560;28;20457;-66
2021/12/20 05:08:59;;;;;;;18.05;3.22;;;3.00;99.90;;;;;;5085899;28;20071;-67
2021/12/20 05:11:26;;;;;;;17.90;2.80;;;3.10;99.90;;;;;;5085234;28;20112;-67
2021/12/20 05:13:52;;;;;;;14.63;2.90;;;3.10;99.90;;;;;;5087112;28;20181;-64
2021/12/20 05:16:18;;;;;;;23.30;2.85;;;3.10;99.90;;;;;;5093992;28;20096;-65
2021/12/20 05:18:44;;;;;;;22.00;2.65;;;3.10;99.90;;;;;;5108909;28;20478;-65
2021/12/20 05:21:10;;;;;;;13.73;3.00;;;3.10;99.90;;;;;;5085173;28;20404;-65
2021/12/20 05:23:35;;;;;;;16.25;2.97;;;3.00;99.90;;;;;;5094287;28;20123;-65
2021/12/20 05:26:02;;;;;;;17.85;2.85;;;3.00;99.90;;;;;;5085381;28;20035;-66
2021/12/20 05:28:28;;;;;;;20.88;2.92;;;3.00;99.90;;;;;;5097103;28;20528;-65
2021/12/20 05:30:53;;;;;;;19.15;3.38;;;2.90;99.90;;;;;;5079652;28;20090;-65
2021/12/20 05:33:22;;;;;;;19.90;3.00;;;2.90;99.90;;;;;;5098906;28;20032;-65
2021/12/20 05:35:50;;;;;;;18.00;2.75;;;2.90;99.90;;;;;;5100679;28;20036;-65
2021/12/20 05:38:15;;;;;;;22.08;3.85;;;2.80;99.90;;;;;;5095777;28;20048;-64
2021/12/20 05:40:41;;;;;;;20.83;2.95;;;2.80;99.90;;;;;;5096583;28;20350;-65
2021/12/20 05:43:07;;;;;;;16.38;3.15;;;2.80;99.90;;;;;;5117994;28;20050;-64
2021/12/20 05:45:34;;;;;;;21.13;3.50;;;2.70;99.90;;;;;;5090085;28;20455;-66
2021/12/20 05:47:59;;;;;;;14.82;2.80;;;2.70;99.90;;;;;;5104890;28;20150;-64
2021/12/20 05:50:25;;;;;;;21.05;4.20;;;2.60;99.90;;;;;;5100417;28;20050;-65
2021/12/20 05:52:51;;;;;;;14.82;3.03;;;2.60;99.90;;;;;;5080681;28;20048;-66
2021/12/20 05:55:18;;;;;;;29.70;3.60;;;2.60;99.90;;;;;;5107925;28;20044;-64
2021/12/20 05:57:44;;;;;;;23.83;3.65;;;2.60;99.90;;;;;;5081176;28;20409;-65
2021/12/20 06:00:14;;;;;;;24.40;3.20;;;2.50;99.90;;;;;;5100370;28;20047;-65
2021/12/20 06:02:41;;;;;;;19.65;3.47;;;2.50;99.90;;;;;;5095330;28;20071;-66
2021/12/20 06:05:07;;;;;;;21.77;3.53;;;2.50;99.90;;;;;;5106959;28;20051;-67
2021/12/20 06:07:33;;;;;;;23.23;4.05;;;2.50;99.90;;;;;;5090493;28;20119;-66
2021/12/20 06:09:58;;;;;;;15.18;3.05;;;2.50;99.90;;;;;;5087972;28;20151;-67
2021/12/20 06:12:24;;;;;;;24.70;3.97;;;2.40;99.90;;;;;;5098428;28;20044;-66
2021/12/20 06:14:49;;;;;;;22.50;3.63;;;2.30;99.90;;;;;;5096553;28;20587;-65
2021/12/20 06:17:15;;;;;;;17.25;4.05;;;2.30;99.90;;;;;;5111099;28;20031;-67
2021/12/20 06:19:41;;;;;;;24.33;4.25;;;2.30;99.90;;;;;;5099365;28;20114;-66
2021/12/20 06:22:10;;;;;;;23.33;3.67;;;2.30;99.90;;;;;;5101684;28;20035;-66
2021/12/20 06:24:36;;;;;;;17.65;4.30;;;2.20;99.90;;;;;;5117834;27;20370;-67
2021/12/20 06:27:01;;;;;;;23.20;4.40;;;2.20;99.90;;;;;;5104884;28;20040;-64
2021/12/20 06:29:27;;;;;;;21.30;3.53;;;2.10;99.90;;;;;;5107661;27;20479;-65
2021/12/20 06:31:53;;;;;;;24.08;4.97;;;2.20;99.90;;;;;;5110664;27;20039;-65
2021/12/20 06:34:19;;;;;;;17.10;3.08;;;2.10;99.90;;;;;;5121625;27;20132;-66
2021/12/20 06:36:44;;;;;;;22.98;3.67;;;2.10;99.90;;;;;;5103390;28;20040;-65
2021/12/20 06:39:10;;;;;;;16.90;3.10;;;2.10;99.90;;;;;;5106192;28;20519;-66
2021/12/20 06:41:36;;;;;;;18.13;3.72;;;2.00;99.90;;;;;;5098377;28;20044;-65
2021/12/20 06:44:04;;;;;;;21.73;3.28;;;2.00;99.90;;;;;;5101569;27;20156;-65
2021/12/20 06:46:30;;;;;;;12.87;2.93;;;2.00;99.90;;;;;;5107840;28;20043;-66
2021/12/20 06:48:55;;;;;;;24.35;3.92;;;2.00;99.90;;;;;;5103754;28;20274;-67
2021/12/20 06:51:21;;;;;;;19.08;3.40;;;1.90;99.90;;;;;;5119006;27;20050;-65
2021/12/20 06:53:47;;;;;;;18.17;3.25;;;1.90;99.90;;;;;;5102913;28;20131;-65
2021/12/20 06:56:13;;;;;;;14.55;3.40;;;1.90;99.90;;;;;;5110116;28;20175;-65
2021/12/20 06:58:39;;;;;;;24.00;3.55;;;1.90;99.90;;;;;;5087576;28;20118;-65
2021/12/20 07:01:05;;;;;;;19.27;4.40;;;1.90;99.90;;;;;;5103696;28;20036;-65
2021/12/20 07:03:31;;;;;;;15.60;3.45;;;1.90;99.90;;;;;;5107703;28;20039;-65
2021/12/20 07:05:56;;;;;;;29.77;3.97;;;1.80;99.90;;;;;;5107908;28;20040;-65
2021/12/20 07:08:22;;;;;;;16.88;3.63;;;1.80;99.90;;;;;;5105171;28;20040;-67
2021/12/20 07:10:48;;;;;;;30.17;4.75;;;1.80;99.90;;;;;;5111566;27;20048;-65
2021/12/20 07:13:14;;;;;;;24.52;4.50;;;1.80;99.90;;;;;;5100264;28;20088;-64
2021/12/20 07:15:41;;;;;;;20.65;4.47;;;1.80;99.90;;;;;;5112646;28;20539;-65
2021/12/20 07:18:06;;;;;;;13.75;3.63;;;1.80;99.90;;;;;;5094392;28;20040;-66
2021/12/20 07:20:33;;;;;;;20.85;4.00;;;1.70;99.90;;;;;;5076874;28;20044;-65
2021/12/20 07:22:59;;;;;;;19.00;3.83;;;1.70;99.90;;;;;;5102013;28;20129;-66
2021/12/20 07:25:25;;;;;;;23.27;4.65;;;1.70;99.90;;;;;;5103309;27;20498;-65
2021/12/20 07:27:52;;;;;;;24.55;4.78;;;1.70;99.90;;;;;;5104999;28;20126;-65
2021/12/20 07:30:18;;;;;;;30.83;5.30;;;1.60;99.90;;;;;;5112925;27;20367;-66
2021/12/20 07:32:44;;;;;;;31.73;6.07;;;1.70;99.90;;;;;;5104804;28;20036;-66
2021/12/20 07:35:11;;;;;;;19.67;5.40;;;1.70;99.90;;;;;;5087153;28;20369;-65
2021/12/20 07:37:37;;;;;;;29.30;5.72;;;1.70;99.90;;;;;;5102467;28;20036;-65
2021/12/20 07:40:07;;;;;;;31.23;6.22;;;1.60;99.90;;;;;;5106911;28;20040;-66
2021/12/20 07:42:33;;;;;;;20.13;5.07;;;1.60;99.90;;;;;;5100115;28;20097;-65
2021/12/20 07:44:59;;;;;;;19.58;5.68;;;1.60;99.90;;;;;;5095753;28;20183;-66
2021/12/20 07:47:25;;;;;;;31.40;5.32;;;1.60;99.90;;;;;;5098764;28;20218;-65
2021/12/20 07:49:51;;;;;;;30.15;5.75;;;1.60;99.90;;;;;;5092353;28;20043;-65
2021/12/20 07:52:16;;;;;;;42.10;6.35;;;1.60;99.90;;;;;;5077423;28;20032;-64
2021/12/20 07:54:42;;;;;;;22.25;5.70;;;1.70;99.90;;;;;;5111649;28;20598;-66
2021/12/20 07:57:07;;;;;;;20.98;4.95;;;1.60;99.90;;;;;;5096075;28;20048;-66
2021/12/20 07:59:33;;;;;;;27.48;5.60;;;1.60;99.90;;;;;;5103678;28;20158;-66
2021/12/20 08:01:59;;;;;;;19.58;5.78;;;1.60;99.90;;;;;;5080867;28;20077;-66
2021/12/20 08:04:25;;;;;;;26.42;5.72;;;1.60;99.90;;;;;;5107221;28;20093;-66
2021/12/20 08:06:50;;;;;;;36.53;6.53;;;1.60;99.90;;;;;;5100501;27;20036;-65
2021/12/20 08:09:16;;;;;;;23.50;5.40;;;1.60;99.90;;;;;;5089336;28;20541;-66
2021/12/20 08:11:43;;;;;;;19.35;5.05;;;1.60;99.90;;;;;;5107938;28;20128;-66
2021/12/20 08:14:08;;;;;;;25.25;6.10;;;1.60;99.90;;;;;;5099973;28;20050;-66
2021/12/20 08:16:34;;;;;;;23.42;4.78;;;1.60;99.90;;;;;;5074183;28;20044;-67
2021/12/20 08:19:00;;;;;;;35.75;8.32;;;1.60;99.90;;;;;;5079540;28;20118;-66
2021/12/20 08:21:26;;;;;;;27.05;6.80;;;1.60;99.90;;;;;;5092202;28;20044;-66
2021/12/20 08:23:51;;;;;;;21.33;4.95;;;1.60;99.90;;;;;;5092844;28;20147;-67
2021/12/20 08:26:17;;;;;;;21.27;5.57;;;1.60;99.90;;;;;;5101213;28;20397;-66
2021/12/20 08:28:43;;;;;;;27.17;5.85;;;1.70;99.90;;;;;;5081391;28;20126;-66
2021/12/20 08:31:09;;;;;;;25.63;6.15;;;1.60;99.90;;;;;;5098520;28;20470;-66
2021/12/20 08:33:36;;;;;;;21.17;5.38;;;1.70;99.90;;;;;;5089663;28;20150;-66
2021/12/20 08:36:04;;;;;;;22.02;6.28;;;1.70;99.90;;;;;;5108523;28;20047;-66
2021/12/20 08:38:30;;;;;;;21.05;6.68;;;1.80;99.90;;;;;;5104668;28;20058;-66
2021/12/20 08:40:57;;;;;;;22.77;6.63;;;1.80;99.90;;;;;;5108300;28;20036;-68
2021/12/20 08:43:23;;;;;;;27.42;6.65;;;1.90;99.90;;;;;;5105586;28;20437;-66
2021/12/20 08:45:49;;;;;;;24.33;5.97;;;1.90;99.90;;;;;;5105887;28;20044;-66
2021/12/20 08:48:15;;;;;;;18.85;5.93;;;2.00;99.90;;;;;;5084657;28;20131;-66
2021/12/20 08:50:41;;;;;;;23.08;6.28;;;2.10;99.90;;;;;;5092892;28;20386;-66
2021/12/20 08:53:10;;;;;;;30.50;6.60;;;2.10;99.90;;;;;;5103546;28;20044;-66
2021/12/20 08:55:36;;;;;;;;;;;2.20;99.90;;;;;;5085089;28;20067;-66
2021/12/20 08:58:01;;;;;;;24.60;6.05;;;2.30;99.90;;;;;;5092210;28;20355;-66
2021/12/20 09:00:32;;;;;;;26.95;6.05;;;2.30;99.90;;;;;;5091071;28;20040;-66
2021/12/20 09:02:58;;;;;;;30.08;6.78;;;2.40;99.90;;;;;;5096167;28;20036;-66
2021/12/20 09:05:26;;;;;;;27.23;7.15;;;2.50;99.90;;;;;;5101015;28;20216;-66
2021/12/20 09:07:51;;;;;;;36.42;7.85;;;2.60;99.90;;;;;;5101543;28;20127;-64
2021/12/20 09:10:17;;;;;;;32.78;7.25;;;2.70;99.90;;;;;;5105281;28;20166;-66
2021/12/20 09:12:44;;;;;;;28.10;6.63;;;2.80;99.90;;;;;;5109191;28;20101;-68
2021/12/20 09:15:15;;;;;;;22.83;6.40;;;3.00;99.90;;;;;;5110421;28;20047;-66
2021/12/20 09:17:49;;;;;;;22.27;6.18;;;3.10;99.90;;;;;;5101168;28;20032;-66
2021/12/20 09:20:17;;;;;;;24.45;6.43;;;3.30;99.90;;;;;;5082215;28;20066;-66
2021/12/20 09:22:51;;;;;;;27.75;6.40;;;3.50;99.90;;;;;;5108857;28;20035;-66
2021/12/20 09:25:22;;;;;;;29.33;6.72;;;3.70;99.90;;;;;;5083646;28;20051;-66
2021/12/20 09:27:48;;;;;;;24.83;6.22;;;4.00;99.90;;;;;;5079745;28;20059;-66
2021/12/20 09:30:14;;;;;;;24.27;6.32;;;4.10;99.90;;;;;;5078403;28;20043;-66
2021/12/20 09:32:40;;;;;;;29.92;7.40;;;4.20;99.90;;;;;;5096017;28;20036;-66
2021/12/20 09:35:07;;;;;;;38.17;7.03;;;4.50;99.90;;;;;;5094843;28;20535;-65
2021/12/20 09:37:33;;;;;;;30.27;7.15;;;4.80;99.90;;;;;;5084483;28;20050;-67
2021/12/20 09:40:00;;;;;;;39.20;6.85;;;5.20;99.90;;;;;;5117180;27;20043;-68
2021/12/20 09:42:26;;;;;;;30.40;6.10;;;5.50;99.90;;;;;;5101902;28;20109;-69
2021/12/20 09:44:53;;;;;;;34.58;7.50;;;5.60;99.90;;;;;;5103863;27;20048;-68
2021/12/20 09:47:19;;;;;;;30.38;7.95;;;6.00;99.90;;;;;;5104454;28;20059;-67
2021/12/20 09:49:46;;;;;;;30.33;6.15;;;6.30;99.90;;;;;;5102219;28;20349;-66
2021/12/20 09:52:12;;;;;;;30.80;6.63;;;6.60;99.90;;;;;;5102721;28;20044;-67
2021/12/20 09:54:39;;;;;;;37.05;7.07;;;6.50;99.90;;;;;;5111773;28;20108;-67
2021/12/20 09:57:08;;;;;;;48.67;13.52;;;6.50;99.90;;;;;;5098203;28;20051;-65
2021/12/20 09:59:36;;;;;;;34.60;8.30;;;6.40;99.90;;;;;;5110952;28;20043;-67
2021/12/20 10:02:08;;;;;;;33.33;6.63;;;6.20;99.90;;;;;;5108212;28;20058;-67
2021/12/20 10:04:34;;;;;;;30.60;7.85;;;5.90;99.90;;;;;;5100037;28;20051;-66
2021/12/20 10:07:02;;;;;;;28.58;6.32;;;5.60;99.90;;;;;;5093140;28;20087;-67
2021/12/20 10:09:33;;;;;;;34.22;6.20;;;5.40;99.90;;;;;;5106990;28;20044;-67
2021/12/20 10:12:16;;;;;;;37.45;6.88;;;5.30;99.90;;;;;;5107002;28;20108;-66
2021/12/20 10:15:01;;;;;;;29.63;6.35;;;5.10;99.90;;;;;;5106348;28;20051;-66
2021/12/20 10:17:55;;;;;;;39.42;7.90;;;5.00;99.90;;;;;;5098304;28;20047;-67
2021/12/20 10:20:28;;;;;;;32.30;6.25;;;4.90;99.90;;;;;;5103063;28;20043;-67
2021/12/20 10:23:14;;;;;;;31.70;6.45;;;4.80;99.90;;;;;;5101053;28;20051;-68
2021/12/20 10:25:42;;;;;;;38.80;6.60;;;4.80;99.90;;;;;;5105017;27;20035;-66
2021/12/20 10:28:11;;;;;;;37.63;5.82;;;5.50;99.90;;;;;;5124788;27;20038;-68
2021/12/20 10:30:41;;;;;;;42.65;6.57;;;4.70;99.90;;;;;;5112315;28;20048;-67
2021/12/20 10:33:20;;;;;;;36.80;6.32;;;4.70;99.90;;;;;;5102845;28;20170;-68
2021/12/20 10:35:57;;;;;;;39.38;5.80;;;4.70;99.90;;;;;;5100335;28;20047;-67
2021/12/20 10:38:23;;;;;;;44.30;7.18;;;4.70;99.90;;;;;;5103319;28;20044;-66
2021/12/20 10:40:59;;;;;;;34.45;6.28;;;4.70;99.90;;;;;;5091204;28;20054;-68
2021/12/20 10:43:34;;;;;;;40.50;6.93;;;4.70;99.90;;;;;;5104373;28;20051;-67
2021/12/20 10:46:09;;;;;;;41.38;6.95;;;4.70;99.90;;;;;;5107437;28;20044;-66
2021/12/20 10:48:34;;;;;;;26.10;5.20;;;4.70;99.90;;;;;;5104907;28;20051;-66
2021/12/20 10:51:01;;;;;;;47.13;6.15;;;4.70;99.90;;;;;;5100340;28;20078;-66
2021/12/20 10:53:27;;;;;;;41.95;6.82;;;4.80;99.90;;;;;;5106923;28;20100;-66
2021/12/20 10:56:03;;;;;;;31.88;5.22;;;4.70;99.90;;;;;;5095755;27;20408;-67
2021/12/20 10:58:36;;;;;;;29.30;5.68;;;4.70;99.90;;;;;;5103485;28;20372;-67
2021/12/20 11:01:04;;;;;;;41.60;8.70;;;4.70;99.90;;;;;;5096104;27;20051;-67
2021/12/20 11:03:36;;;;;;;61.55;17.95;;;4.70;99.90;;;;;;5105571;28;20456;-66
2021/12/20 11:11:29;;;;;;;24.15;4.30;;;4.70;99.90;;;;;;5101801;28;20501;-67
2021/12/20 11:13:55;;;;;;;30.90;5.00;;;4.70;99.90;;;;;;5096100;28;20047;-66
2021/12/20 11:16:38;;;;;;;29.23;5.88;;;4.80;99.90;;;;;;5106582;27;20148;-66
2021/12/20 11:19:20;;;;;;;24.48;5.18;;;4.80;99.90;;;;;;5082936;28;20040;-68
2021/12/20 11:21:52;;;;;;;25.30;4.75;;;4.80;99.90;;;;;;5095478;28;20051;-69
2021/12/20 11:24:23;;;;;;;28.15;4.18;;;4.80;99.90;;;;;;5100746;28;20039;-67
2021/12/20 11:26:50;;;;;;;17.90;4.63;;;4.80;99.90;;;;;;5076265;28;20514;-67
2021/12/20 11:29:16;;;;;;;26.90;4.88;;;4.80;99.90;;;;;;5092147;28;20051;-67
2021/12/20 11:31:42;;;;;;;32.92;4.47;;;4.80;99.90;;;;;;5099569;28;20047;-68
2021/12/20 11:34:08;;;;;;;30.48;4.80;;;4.80;99.90;;;;;;5097407;28;20047;-67
2021/12/20 11:36:35;;;;;;;22.88;4.57;;;4.90;99.90;;;;;;5082110;28;20039;-66
2021/12/20 11:39:08;;;;;;;25.17;4.53;;;5.00;99.90;;;;;;5094835;28;20063;-66
2021/12/20 11:41:34;;;;;;;30.10;4.95;;;4.90;99.90;;;;;;5089925;28;20044;-66
2021/12/20 11:44:02;;;;;;;24.50;5.22;;;4.90;99.90;;;;;;5083817;28;20123;-66
2021/12/20 11:46:57;;;;;;;22.25;4.03;;;4.90;99.90;;;;;;5104055;27;20040;-66
2021/12/20 11:49:24;;;;;;;23.42;4.70;;;4.90;99.90;;;;;;5072513;28;20047;-66
2021/12/20 11:52:01;;;;;;;21.88;3.67;;;4.90;99.90;;;;;;5096864;28;20044;-66
2021/12/20 11:54:49;;;;;;;24.70;6.88;;;4.90;99.90;;;;;;5076073;28;20055;-67
2021/12/20 11:57:35;;;;;;;17.30;3.05;;;4.90;99.90;;;;;;5103861;28;20071;-65
2021/12/20 12:00:09;;;;;;;14.85;3.47;;;4.90;99.90;;;;;;5105426;28;20047;-66
2021/12/20 12:02:42;;;;;;;23.38;4.95;;;4.90;99.90;;;;;;5109997;27;20039;-66
2021/12/20 12:05:11;;;;;;;23.83;4.88;;;4.90;99.90;;;;;;5107503;28;20051;-66
2021/12/20 12:07:38;;;;;;;22.77;4.38;;;4.90;99.90;;;;;;5088522;28;20047;-67
2021/12/20 12:10:13;;;;;;;24.20;4.30;;;4.90;99.90;;;;;;5101600;28;20139;-67
2021/12/20 12:12:43;;;;;;;19.95;3.97;;;5.00;99.90;;;;;;5093928;28;20041;-66
2021/12/20 12:15:14;;;;;;;30.95;4.30;;;5.00;99.90;;;;;;5101071;28;20518;-68
2021/12/20 12:17:51;;;;;;;22.67;4.80;;;5.00;99.90;;;;;;5100365;27;20063;-66
2021/12/20 12:20:38;;;;;;;21.98;4.10;;;5.00;99.90;;;;;;5093761;27;20047;-67
2021/12/20 12:23:32;;;;;;;22.67;4.55;;;5.00;99.90;;;;;;5101707;28;20088;-68
2021/12/20 12:26:01;;;;;;;17.35;3.47;;;5.00;99.90;;;;;;5106805;28;20545;-66
2021/12/20 12:28:54;;;;;;;21.33;3.90;;;5.00;99.90;;;;;;5106743;28;20189;-66
2021/12/20 12:31:20;;;;;;;25.90;4.30;;;5.00;99.90;;;;;;5099544;28;20520;-66
2021/12/20 12:33:46;;;;;;;17.45;3.63;;;5.00;99.90;;;;;;5105732;28;20035;-66
2021/12/20 12:36:30;;;;;;;17.35;3.55;;;5.00;99.90;;;;;;5094727;28;20503;-66
2021/12/20 12:38:58;;;;;;;13.85;3.42;;;5.00;99.90;;;;;;5108628;28;20039;-67
2021/12/20 12:41:26;;;;;;;;;;;5.00;99.90;;;;;;5103929;28;20036;-66
2021/12/20 12:44:03;;;;;;;14.45;2.40;;;5.00;99.90;;;;;;5094706;28;20700;-67
2021/12/20 12:46:35;;;;;;;11.27;2.20;;;5.00;99.90;;;;;;5090268;28;20047;-67
2021/12/20 12:49:21;;;;;;;10.20;1.90;;;4.90;99.90;;;;;;5097947;28;20428;-66
2021/12/20 12:52:04;;;;;;;13.32;1.83;;;4.90;99.90;;;;;;5102654;28;20035;-67
2021/12/20 12:54:33;;;;;;;7.80;1.85;;;4.90;99.90;;;;;;5100547;28;20047;-65
2021/12/20 12:57:10;;;;;;;10.02;2.70;;;4.90;99.90;;;;;;5097441;28;20039;-66
2021/12/20 12:59:49;;;;;;;16.10;4.47;;;4.90;99.90;;;;;;5101384;28;20059;-66
2021/12/20 13:02:22;;;;;;;;;;;4.90;99.90;;;;;;5101651;28;20461;-66
2021/12/20 13:05:05;;;;;;;12.88;2.58;;;4.80;99.90;;;;;;5081412;28;20052;-67
2021/12/20 13:07:50;;;;;;;5.35;1.92;;;4.80;99.90;;;;;;5091702;28;20460;-67
2021/12/20 13:10:19;;;;;;;6.97;2.15;;;4.70;99.90;;;;;;5098651;28;20044;-68
2021/12/20 13:15:33;;;;;;;4.43;1.42;;;4.60;99.90;;;;;;5075490;28;20089;-68